Weather at Centralia / James T. Field Memorial Aerodrome

Public forecast

Using degrees Celsius for public forecast. Weather courtesy of forecast.io.

Closest aviation weather report (METAR) to Centralia / James T. Field Memorial Aerodrome

Closest report is London Airport, 21.6 nm (40.0 km) SE. Retrieved 2021/01/28 12:00 UTC (42 minutes ago):

CYXU 281200Z 33004KT 10SM -SHSN BKN029TCU M12/M13 A3037 RMK TCU5 SLP304

Closest aviation forecast (TAF) to Centralia / James T. Field Memorial Aerodrome

Closest forecast is London Airport, 21.6 nm (40.0 km) SE. Retrieved 2021/01/28 12:40 UTC (2 minutes ago):

TAF CYXU 281138Z 2812/2912 35008KT P6SM SCT025 TEMPO 2812/2814 P6SM -SHSN BKN020 FM281400 34012KT P6SM BKN025 TEMPO 2814/2818 5SM -SHSN BKN020 FM281800 32012G22KT 2SM -SHSN OVC015 PROB30 2818/2823 3/4SM -SHSN VV010 FM282300 30012KT 5SM -SHSN BKN020 FM290800 33010KT 2SM -SHSN OVC015 PROB30 2908/2912 1/2SM SHSN VV006 RMK NXT FCST BY 281800Z